Airfield :
LOGIN :

Register | Disclaimer

   EN    FR    IT 

 










Legend :    VFR   Marginal VFR   IFR   Intensive IFR   Very Intensive IFR
Visi :
Ceiling :
>= 8 km
>= 3000ft
5 to 8 km
1000 to 3000 ft
1500m to 5 km
500 to 1000 ft
800 to 1500m
200 to 500 ft
< 800m
< 200 ft
Symbols :   Thunderstorms  Fog  Heavy snow  Heavy precipitations  Wind > 20 kt
SIGMETs :     Misc.  Thunderstorms  Icing  Turbulence  Mountain Waves  Volcanic Ashes







- Airport Elevation : 1460 ft


LSMA - Alpnach

CURRENT METAR :
  • 190220Z AUTO VRB02KT 9999NDV NCD M01/M03 Q1022 RMK

EXPIRED METARs :
  • 190150Z AUTO 18006KT 9999NDV NCD M01/M03 Q1022 RMK
  • 190120Z AUTO 21003KT 150V250 9999NDV NCD M01/M03 Q1022 RMK
  • 190050Z AUTO VRB01KT 9999NDV NCD M02/M04 Q1022 RMK
  • 190020Z AUTO 19003KT 140V270 9999NDV NCD M01/M03 Q1022 RMK
  • 182350Z AUTO VRB01KT 9999NDV NCD M01/M02 Q1022 RMK
  • 182320Z AUTO VRB01KT 9999NDV NCD M00/M03 Q1021 RMK

Expired Forecast.
No reported NOTAMs for that airfield.



MET'MAP, your aeronautical weather chart ! - Copyright ORBIFLY December 2007 - Disclaimer

ORBIFLY MET'MAP TEAM :

Programming & Development : Alexandra Zaïnal
Concept & Development : Baudouin d'Aumeries
Co-Development & Prog : Marc-Olivier Méhu
Technical & hardware support : Manuel Goepfert

Contact : metmap@orbifly.com




SOURCES & CREDITS :

   NOAA